createdAt,value
2022-08-26T00:00:11.638Z,16.60
2022-08-26T00:01:11.650Z,14.60
2022-08-26T00:02:11.690Z,14.60
2022-08-26T00:03:11.624Z,14.60
2022-08-26T00:04:11.666Z,14.00
2022-08-26T00:05:11.584Z,13.40
2022-08-26T00:06:11.577Z,13.90
2022-08-26T00:07:11.576Z,14.80
2022-08-26T00:08:13.028Z,14.00
2022-08-26T00:09:11.532Z,13.50
2022-08-26T00:10:11.533Z,15.50
2022-08-26T00:11:11.532Z,14.80
2022-08-26T00:12:12.109Z,14.70
2022-08-26T00:13:11.497Z,15.70
2022-08-26T00:14:11.469Z,14.40
2022-08-26T00:15:11.473Z,14.00
2022-08-26T00:16:11.671Z,14.30
2022-08-26T00:17:11.480Z,13.70
2022-08-26T00:18:16.862Z,14.90
2022-08-26T00:19:11.426Z,15.80
2022-08-26T00:20:11.419Z,14.20
2022-08-26T00:21:11.442Z,15.30
2022-08-26T00:22:11.433Z,15.70
2022-08-26T00:23:11.404Z,17.90
2022-08-26T00:24:11.384Z,16.60
2022-08-26T00:25:11.384Z,15.30
2022-08-26T00:26:11.346Z,15.00
2022-08-26T00:27:11.360Z,16.20
2022-08-26T00:28:11.323Z,15.80
2022-08-26T00:29:11.310Z,15.10
2022-08-26T00:30:11.305Z,15.10
2022-08-26T00:31:11.323Z,15.20
2022-08-26T00:32:11.526Z,15.60
2022-08-26T00:33:11.267Z,17.00
2022-08-26T00:34:12.021Z,15.60
2022-08-26T00:35:11.260Z,16.20
2022-08-26T00:36:20.433Z,16.10
2022-08-26T00:37:15.666Z,17.60
2022-08-26T00:38:11.228Z,16.80
2022-08-26T00:39:11.211Z,17.30
2022-08-26T00:40:11.337Z,14.90
2022-08-26T00:41:11.178Z,15.50
2022-08-26T00:42:11.190Z,14.60
2022-08-26T00:43:11.187Z,15.10
2022-08-26T00:44:11.296Z,15.10
2022-08-26T00:45:11.740Z,16.30
2022-08-26T00:46:11.205Z,14.50
2022-08-26T00:47:11.156Z,15.20
2022-08-26T00:48:11.104Z,16.50
2022-08-26T00:49:11.809Z,15.60
2022-08-26T00:50:11.110Z,15.90
2022-08-26T00:51:11.068Z,16.90
2022-08-26T00:52:12.075Z,14.90
2022-08-26T00:53:11.044Z,15.80
2022-08-26T00:54:11.051Z,15.80
2022-08-26T00:55:11.052Z,16.30
2022-08-26T00:56:11.014Z,15.90
2022-08-26T00:57:16.477Z,15.70
2022-08-26T00:58:10.997Z,17.00
2022-08-26T00:59:10.975Z,15.60
2022-08-26T01:00:10.999Z,16.80
2022-08-26T01:01:11.027Z,15.50
2022-08-26T01:02:20.916Z,16.90
2022-08-26T01:03:11.623Z,16.10
2022-08-26T01:04:10.959Z,15.40
2022-08-26T01:05:10.919Z,17.40
2022-08-26T01:06:12.970Z,15.90
2022-08-26T01:07:10.903Z,15.80
2022-08-26T01:08:10.874Z,16.00
2022-08-26T01:09:10.874Z,15.80
2022-08-26T01:10:10.884Z,15.20
2022-08-26T01:11:10.837Z,15.00
2022-08-26T01:12:10.918Z,15.50
2022-08-26T01:13:10.853Z,15.10
2022-08-26T01:14:10.844Z,15.70
2022-08-26T01:15:10.809Z,15.00
2022-08-26T01:16:10.830Z,16.30
2022-08-26T01:17:10.807Z,17.50
2022-08-26T01:18:10.762Z,15.40
2022-08-26T01:19:10.750Z,14.80
2022-08-26T01:20:10.750Z,15.60
2022-08-26T01:21:10.730Z,17.10
2022-08-26T01:22:10.736Z,22.20
2022-08-26T01:23:10.706Z,19.00
2022-08-26T01:24:10.720Z,16.90
2022-08-26T01:25:10.693Z,19.60
2022-08-26T01:26:19.473Z,20.30
2022-08-26T01:27:10.682Z,17.80
2022-08-26T01:28:10.650Z,19.20
2022-08-26T01:29:10.662Z,22.50
2022-08-26T01:30:10.622Z,20.70
2022-08-26T01:31:10.676Z,20.80
2022-08-26T01:32:10.652Z,21.90
2022-08-26T01:33:10.592Z,21.10
2022-08-26T01:34:10.591Z,19.50
2022-08-26T01:35:10.585Z,20.60
2022-08-26T01:36:10.554Z,22.90
2022-08-26T01:37:15.473Z,20.10
2022-08-26T01:38:10.541Z,19.10
2022-08-26T01:39:10.527Z,21.70
2022-08-26T01:40:10.575Z,21.20
2022-08-26T01:41:16.156Z,20.90
2022-08-26T01:42:10.597Z,19.00
2022-08-26T01:43:10.488Z,20.30
2022-08-26T01:44:10.465Z,21.40
2022-08-26T01:45:10.458Z,20.00
2022-08-26T01:46:10.542Z,21.30
2022-08-26T01:47:10.473Z,21.50
2022-08-26T01:48:10.421Z,19.40
2022-08-26T01:49:10.436Z,20.30
2022-08-26T01:50:10.397Z,20.30
2022-08-26T01:51:10.397Z,23.20
2022-08-26T01:52:10.791Z,20.50
2022-08-26T01:53:10.721Z,21.70
2022-08-26T01:54:12.050Z,24.00
2022-08-26T01:55:10.349Z,21.60
2022-08-26T01:56:10.345Z,20.90
2022-08-26T01:57:10.339Z,20.40
2022-08-26T01:58:10.311Z,21.60
2022-08-26T01:59:10.728Z,20.10
2022-08-26T02:00:10.301Z,21.30
2022-08-26T02:01:10.335Z,23.40
2022-08-26T02:02:10.315Z,20.10
2022-08-26T02:03:10.258Z,23.90
2022-08-26T02:04:10.357Z,22.70
2022-08-26T02:05:10.246Z,19.50
2022-08-26T02:06:10.360Z,20.40
2022-08-26T02:07:10.257Z,19.20
2022-08-26T02:08:10.202Z,19.70
2022-08-26T02:09:10.190Z,19.70
2022-08-26T02:10:10.185Z,19.40
2022-08-26T02:11:10.176Z,19.40
2022-08-26T02:12:10.363Z,20.10
2022-08-26T02:13:10.165Z,19.60
2022-08-26T02:14:10.154Z,19.10
2022-08-26T02:15:11.079Z,19.70
2022-08-26T02:16:10.164Z,19.80
2022-08-26T02:17:10.122Z,19.50
2022-08-26T02:18:14.181Z,21.00
2022-08-26T02:19:10.090Z,22.20
2022-08-26T02:20:13.359Z,20.60
2022-08-26T02:21:10.068Z,20.80
2022-08-26T02:22:10.070Z,20.80
2022-08-26T02:23:10.044Z,19.80
2022-08-26T02:24:10.027Z,19.70
2022-08-26T02:25:10.027Z,23.00
2022-08-26T02:26:10.023Z,19.70
2022-08-26T02:27:10.015Z,20.20
2022-08-26T02:28:09.982Z,20.80
2022-08-26T02:29:09.975Z,20.50
2022-08-26T02:30:09.975Z,19.10
2022-08-26T02:31:10.069Z,19.30
2022-08-26T02:32:09.965Z,18.70
2022-08-26T02:33:09.942Z,19.90
2022-08-26T02:34:10.805Z,19.70
2022-08-26T02:35:09.929Z,20.10
2022-08-26T02:36:09.895Z,18.90
2022-08-26T02:37:09.917Z,19.50
2022-08-26T02:38:11.011Z,25.50
2022-08-26T02:39:09.888Z,19.30
2022-08-26T02:40:09.927Z,20.20
2022-08-26T02:41:09.846Z,20.90
2022-08-26T02:42:09.870Z,21.70
2022-08-26T02:43:09.889Z,21.20
2022-08-26T02:44:09.837Z,20.40
2022-08-26T02:45:09.797Z,19.90
2022-08-26T02:46:09.794Z,19.90
2022-08-26T02:47:09.826Z,21.30
2022-08-26T02:48:09.771Z,21.60
2022-08-26T02:49:09.768Z,23.00
2022-08-26T02:50:09.746Z,21.30
2022-08-26T02:51:09.756Z,22.00
2022-08-26T02:52:09.747Z,21.50
2022-08-26T02:53:09.948Z,22.20
2022-08-26T02:54:09.742Z,20.80
2022-08-26T02:55:09.700Z,21.50
2022-08-26T02:56:09.691Z,21.30
2022-08-26T02:57:09.712Z,24.60
2022-08-26T02:58:09.670Z,22.20
2022-08-26T02:59:09.663Z,22.50
2022-08-26T03:00:09.641Z,23.50
2022-08-26T03:01:09.687Z,22.20
2022-08-26T03:02:09.672Z,22.30
2022-08-26T03:03:09.808Z,23.10
2022-08-26T03:04:09.598Z,23.60
2022-08-26T03:05:09.582Z,23.00
2022-08-26T03:06:09.640Z,24.90
2022-08-26T03:07:09.589Z,27.20
2022-08-26T03:08:09.579Z,24.50
2022-08-26T03:09:09.543Z,23.70
2022-08-26T03:10:09.536Z,23.30
2022-08-26T03:11:09.531Z,23.60
2022-08-26T03:12:09.534Z,25.00
2022-08-26T03:13:09.717Z,26.60
2022-08-26T03:14:09.498Z,25.60
2022-08-26T03:15:16.608Z,27.60
2022-08-26T03:16:09.535Z,25.60
2022-08-26T03:17:09.629Z,25.40
2022-08-26T03:18:09.450Z,24.00
2022-08-26T03:19:09.439Z,25.70
2022-08-26T03:20:09.426Z,23.30
2022-08-26T03:21:09.413Z,24.80
2022-08-26T03:22:09.447Z,24.20
2022-08-26T03:23:09.512Z,23.80
2022-08-26T03:24:09.387Z,24.00
2022-08-26T03:25:09.367Z,24.90
2022-08-26T03:26:10.906Z,24.10
2022-08-26T03:27:09.365Z,23.90
2022-08-26T03:28:09.667Z,23.60
2022-08-26T03:29:09.331Z,22.60
2022-08-26T03:30:11.813Z,24.10
2022-08-26T03:31:09.329Z,24.10
2022-08-26T03:32:09.315Z,24.30
2022-08-26T03:33:09.409Z,25.10
2022-08-26T03:34:09.265Z,25.80
2022-08-26T03:35:09.258Z,25.40
2022-08-26T03:36:09.246Z,24.60
2022-08-26T03:37:09.268Z,25.70
2022-08-26T03:38:09.227Z,25.50
2022-08-26T03:39:09.224Z,27.80
2022-08-26T03:40:09.267Z,30.10
2022-08-26T03:41:09.193Z,27.70
2022-08-26T03:42:09.208Z,28.70
2022-08-26T03:43:10.011Z,29.70
2022-08-26T03:44:09.169Z,28.20
2022-08-26T03:45:13.654Z,28.60
2022-08-26T03:46:09.175Z,26.60
2022-08-26T03:47:09.141Z,29.70
2022-08-26T03:48:09.117Z,27.90
2022-08-26T03:49:09.099Z,28.10
2022-08-26T03:50:09.111Z,27.90
2022-08-26T03:51:09.079Z,28.50
2022-08-26T03:52:09.109Z,28.60
2022-08-26T03:53:13.273Z,30.70
2022-08-26T03:54:09.052Z,33.50
2022-08-26T03:55:09.055Z,28.30
2022-08-26T03:56:09.072Z,29.20
2022-08-26T03:57:09.037Z,29.60
2022-08-26T03:58:09.010Z,33.00
2022-08-26T03:59:08.986Z,33.40
2022-08-26T04:00:08.977Z,32.10
2022-08-26T04:01:08.983Z,35.70
2022-08-26T04:02:11.715Z,32.10
2022-08-26T04:03:09.674Z,39.90
2022-08-26T04:04:08.971Z,35.80
2022-08-26T04:05:08.938Z,38.40
2022-08-26T04:06:08.952Z,38.40
2022-08-26T04:07:08.924Z,37.00
2022-08-26T04:08:08.912Z,35.00
2022-08-26T04:09:08.890Z,37.40
2022-08-26T04:10:08.928Z,39.20
2022-08-26T04:11:08.886Z,38.60
2022-08-26T04:12:08.881Z,39.90
2022-08-26T04:13:09.009Z,42.30
2022-08-26T04:14:08.826Z,44.70
2022-08-26T04:15:08.814Z,46.20
2022-08-26T04:16:08.805Z,44.00
2022-08-26T04:17:08.840Z,44.10
2022-08-26T04:18:08.780Z,45.80
2022-08-26T04:19:08.783Z,45.70
2022-08-26T04:20:08.776Z,44.90
2022-08-26T04:21:08.771Z,43.60
2022-08-26T04:22:08.733Z,49.50
2022-08-26T04:23:08.910Z,46.20
2022-08-26T04:24:12.172Z,47.80
2022-08-26T04:25:08.705Z,49.70
2022-08-26T04:26:08.711Z,51.80
2022-08-26T04:27:08.700Z,48.10
2022-08-26T04:28:08.705Z,52.70
2022-08-26T04:29:08.678Z,51.70
2022-08-26T04:30:08.913Z,51.20
2022-08-26T04:31:08.646Z,52.10
2022-08-26T04:32:08.641Z,51.80
2022-08-26T04:33:12.905Z,53.50
2022-08-26T04:34:08.676Z,57.10
2022-08-26T04:35:08.598Z,55.00
2022-08-26T04:36:08.635Z,53.10
2022-08-26T04:37:08.564Z,53.80
2022-08-26T04:38:08.565Z,55.40
2022-08-26T04:39:08.569Z,54.90
2022-08-26T04:40:08.573Z,55.10
2022-08-26T04:41:14.962Z,56.60
2022-08-26T04:42:08.533Z,54.10
2022-08-26T04:43:08.647Z,62.20
2022-08-26T04:44:08.500Z,60.50
2022-08-26T04:45:10.435Z,61.80
2022-08-26T04:46:08.588Z,63.40
2022-08-26T04:47:08.469Z,61.00
2022-08-26T04:48:08.453Z,56.00
2022-08-26T04:49:08.458Z,67.10
2022-08-26T04:50:08.453Z,64.20
2022-08-26T04:51:08.409Z,63.60
2022-08-26T04:52:08.406Z,65.90
2022-08-26T04:53:08.640Z,64.30
2022-08-26T04:54:08.407Z,68.90
2022-08-26T04:55:08.768Z,65.40
2022-08-26T04:56:08.367Z,61.70
2022-08-26T04:57:08.355Z,73.70
2022-08-26T04:58:08.339Z,75.00
2022-08-26T04:59:08.326Z,82.10
2022-08-26T05:00:08.378Z,72.80
2022-08-26T05:01:08.317Z,76.70
2022-08-26T05:02:08.393Z,69.40
2022-08-26T05:03:10.401Z,77.00
2022-08-26T05:04:08.386Z,76.50
2022-08-26T05:05:08.258Z,75.40
2022-08-26T05:06:08.271Z,72.90
2022-08-26T05:07:08.264Z,72.10
2022-08-26T05:08:08.222Z,71.60
2022-08-26T05:09:08.212Z,82.90
2022-08-26T05:10:08.807Z,77.40
2022-08-26T05:11:08.189Z,77.40
2022-08-26T05:12:08.196Z,77.60
2022-08-26T05:13:08.236Z,77.50
2022-08-26T05:14:08.158Z,86.30
2022-08-26T05:15:08.156Z,90.80
2022-08-26T05:16:08.207Z,81.00
2022-08-26T05:17:08.169Z,88.30
2022-08-26T05:18:08.141Z,80.10
2022-08-26T05:19:08.559Z,86.90
2022-08-26T05:20:08.096Z,84.60
2022-08-26T05:21:08.086Z,99.40
2022-08-26T05:22:08.074Z,89.50
2022-08-26T05:23:08.202Z,87.60
2022-08-26T05:24:08.063Z,86.30
2022-08-26T05:25:08.074Z,88.00
2022-08-26T05:26:08.029Z,90.00
2022-08-26T05:27:11.837Z,87.00
2022-08-26T05:28:08.028Z,86.50
2022-08-26T05:29:07.989Z,89.50
2022-08-26T05:30:07.985Z,92.00
2022-08-26T05:31:08.066Z,89.20
2022-08-26T05:32:07.955Z,103.40
2022-08-26T05:33:08.218Z,94.90
2022-08-26T05:34:08.428Z,122.00
2022-08-26T05:35:09.020Z,122.60
2022-08-26T05:36:07.911Z,114.70
2022-08-26T05:37:07.904Z,106.50
2022-08-26T05:38:12.282Z,98.20
2022-08-26T05:39:07.904Z,101.40
2022-08-26T05:40:07.939Z,102.80
2022-08-26T05:41:07.871Z,97.70
2022-08-26T05:42:07.849Z,99.90
2022-08-26T05:43:07.972Z,108.30
2022-08-26T05:44:07.842Z,97.00
2022-08-26T05:45:07.830Z,103.00
2022-08-26T05:46:07.827Z,106.00
2022-08-26T05:47:07.802Z,114.40
2022-08-26T05:48:07.780Z,102.40
2022-08-26T05:49:12.241Z,104.70
2022-08-26T05:50:07.763Z,103.80
2022-08-26T05:51:07.756Z,99.70
2022-08-26T05:52:07.752Z,99.50
2022-08-26T05:53:07.835Z,96.10
2022-08-26T05:54:07.753Z,92.90
2022-08-26T05:55:07.710Z,104.20
2022-08-26T05:56:07.702Z,103.70
2022-08-26T05:57:07.724Z,100.80
2022-08-26T05:58:07.674Z,98.20
2022-08-26T05:59:10.891Z,116.30
2022-08-26T06:00:07.689Z,108.10
2022-08-26T06:01:07.673Z,95.30
2022-08-26T06:02:07.628Z,109.20
2022-08-26T06:03:07.863Z,106.90
2022-08-26T06:04:07.607Z,109.00
2022-08-26T06:05:07.707Z,98.00
2022-08-26T06:06:07.583Z,109.60
2022-08-26T06:07:07.575Z,101.30
2022-08-26T06:08:07.565Z,102.00
2022-08-26T06:09:09.445Z,100.90
2022-08-26T06:10:30.970Z,104.40
2022-08-26T06:11:07.544Z,99.80
2022-08-26T06:12:07.527Z,97.50
2022-08-26T06:13:11.884Z,95.30
2022-08-26T06:14:07.504Z,102.10
2022-08-26T06:15:07.506Z,96.80
2022-08-26T06:16:07.519Z,97.70
2022-08-26T06:17:07.478Z,103.30
2022-08-26T06:18:07.505Z,99.60
2022-08-26T06:19:10.984Z,99.30
2022-08-26T06:20:07.465Z,92.50
2022-08-26T06:21:07.435Z,97.40
2022-08-26T06:22:07.453Z,95.60
2022-08-26T06:23:07.555Z,91.40
2022-08-26T06:24:07.388Z,87.10
2022-08-26T06:25:07.391Z,103.40
2022-08-26T06:26:07.413Z,99.90
2022-08-26T06:27:07.360Z,90.00
2022-08-26T06:28:07.347Z,101.30
2022-08-26T06:29:07.337Z,92.00
2022-08-26T06:30:07.333Z,89.60
2022-08-26T06:31:07.403Z,84.70
2022-08-26T06:32:07.321Z,92.10
2022-08-26T06:33:07.559Z,92.20
2022-08-26T06:34:10.519Z,88.80
2022-08-26T06:35:07.270Z,87.50
2022-08-26T06:36:07.272Z,99.70
2022-08-26T06:37:07.291Z,95.70
2022-08-26T06:38:07.250Z,90.50
2022-08-26T06:39:07.241Z,97.80
2022-08-26T06:40:07.286Z,88.20
2022-08-26T06:41:07.243Z,94.80
2022-08-26T06:42:07.246Z,91.30
2022-08-26T06:43:07.326Z,85.90
2022-08-26T06:44:07.177Z,95.00
2022-08-26T06:45:07.192Z,90.40
2022-08-26T06:46:07.213Z,89.00
2022-08-26T06:47:07.149Z,88.70
2022-08-26T06:48:07.162Z,93.00
2022-08-26T06:49:07.147Z,92.30
2022-08-26T06:50:07.110Z,93.70
2022-08-26T06:51:07.106Z,81.60
2022-08-26T06:52:07.106Z,90.80
2022-08-26T06:53:07.334Z,88.10
2022-08-26T06:54:07.071Z,88.30
2022-08-26T06:55:07.067Z,82.80
2022-08-26T06:56:07.068Z,86.20
2022-08-26T06:57:07.113Z,88.60
2022-08-26T06:58:07.146Z,92.90
2022-08-26T06:59:07.637Z,92.10
2022-08-26T07:00:07.017Z,87.20
2022-08-26T07:01:11.484Z,86.90
2022-08-26T07:02:07.049Z,77.70
2022-08-26T07:03:07.349Z,80.20
2022-08-26T07:04:07.912Z,76.70
2022-08-26T07:05:06.941Z,84.70
2022-08-26T07:06:07.018Z,78.60
2022-08-26T07:07:06.923Z,83.30
2022-08-26T07:08:06.933Z,83.90
2022-08-26T07:09:06.920Z,86.50
2022-08-26T07:10:06.894Z,84.10
2022-08-26T07:11:06.887Z,77.10
2022-08-26T07:12:07.420Z,74.50
2022-08-26T07:13:06.962Z,76.90
2022-08-26T07:14:06.879Z,71.90
2022-08-26T07:15:06.850Z,75.80
2022-08-26T07:16:06.858Z,74.60
2022-08-26T07:17:09.183Z,81.20
2022-08-26T07:18:06.816Z,75.10
2022-08-26T07:19:10.930Z,74.30
2022-08-26T07:20:06.813Z,74.60
2022-08-26T07:21:06.767Z,70.60
2022-08-26T07:22:06.757Z,77.30
2022-08-26T07:23:06.924Z,77.30
2022-08-26T07:24:06.734Z,78.00
2022-08-26T07:25:06.763Z,70.60
2022-08-26T07:26:06.727Z,67.90
2022-08-26T07:27:06.709Z,80.80
2022-08-26T07:28:06.691Z,70.40
2022-08-26T07:29:06.710Z,71.10
2022-08-26T07:30:06.669Z,69.10
2022-08-26T07:31:07.441Z,70.00
2022-08-26T07:32:06.650Z,79.00
2022-08-26T07:33:06.765Z,72.50
2022-08-26T07:34:06.631Z,69.50
2022-08-26T07:35:06.615Z,73.10
2022-08-26T07:36:06.619Z,70.00
2022-08-26T07:37:08.849Z,70.30
2022-08-26T07:38:06.578Z,71.30
2022-08-26T07:39:06.575Z,74.40
2022-08-26T07:40:06.596Z,70.10
2022-08-26T07:41:06.541Z,67.10
2022-08-26T07:42:07.576Z,74.30
2022-08-26T07:43:06.801Z,67.60
2022-08-26T07:44:06.508Z,67.10
2022-08-26T07:45:06.520Z,71.20
2022-08-26T07:46:06.489Z,71.10
2022-08-26T07:47:24.236Z,72.90
2022-08-26T07:48:06.474Z,65.50
2022-08-26T07:49:06.503Z,68.80
2022-08-26T07:50:06.443Z,66.80
2022-08-26T07:51:06.451Z,73.70
2022-08-26T07:52:06.434Z,66.20
2022-08-26T07:53:06.479Z,66.50
2022-08-26T07:54:06.395Z,68.60
2022-08-26T07:55:06.384Z,67.00
2022-08-26T07:56:06.433Z,64.70
2022-08-26T07:57:09.281Z,66.60
2022-08-26T07:58:06.370Z,66.80
2022-08-26T07:59:13.818Z,70.00
2022-08-26T08:00:06.337Z,63.90
2022-08-26T08:01:06.353Z,65.60
2022-08-26T08:02:06.309Z,68.60
2022-08-26T08:03:06.392Z,62.80
2022-08-26T08:04:06.292Z,63.70
2022-08-26T08:05:06.306Z,67.10
2022-08-26T08:06:06.314Z,66.70
2022-08-26T08:07:07.514Z,61.80
2022-08-26T08:08:27.368Z,60.00
2022-08-26T08:09:06.302Z,63.40
2022-08-26T08:10:09.762Z,62.70
2022-08-26T08:11:06.233Z,62.00
2022-08-26T08:12:06.199Z,61.00
2022-08-26T08:13:06.301Z,66.30
2022-08-26T08:14:08.462Z,59.60
2022-08-26T08:15:06.197Z,56.60
2022-08-26T08:16:06.162Z,65.40
2022-08-26T08:17:06.309Z,59.00
2022-08-26T08:18:06.211Z,60.60
2022-08-26T08:19:06.160Z,65.00
2022-08-26T08:20:06.109Z,62.20
2022-08-26T08:21:20.963Z,59.70
2022-08-26T08:22:17.096Z,58.20
2022-08-26T08:23:06.078Z,61.70
2022-08-26T08:24:06.057Z,61.80
2022-08-26T08:25:06.232Z,58.80
2022-08-26T08:26:06.054Z,63.00
2022-08-26T08:27:06.071Z,57.50
2022-08-26T08:28:06.106Z,57.00
2022-08-26T08:29:06.008Z,57.10
2022-08-26T08:30:06.021Z,54.20
2022-08-26T08:31:06.085Z,57.00
2022-08-26T08:32:06.073Z,55.30
2022-08-26T08:33:05.982Z,58.30
2022-08-26T08:34:05.952Z,62.10
2022-08-26T08:35:11.089Z,61.50
2022-08-26T08:36:05.945Z,56.90
2022-08-26T08:37:08.621Z,57.00
2022-08-26T08:38:05.985Z,57.30
2022-08-26T08:39:06.387Z,58.00
2022-08-26T08:40:05.954Z,59.20
2022-08-26T08:41:05.920Z,55.20
2022-08-26T08:42:05.923Z,56.90
2022-08-26T08:43:05.912Z,58.30
2022-08-26T08:44:05.878Z,55.20
2022-08-26T08:45:05.842Z,53.20
2022-08-26T08:46:05.856Z,56.40
2022-08-26T08:47:05.823Z,59.60
2022-08-26T08:48:05.852Z,57.10
2022-08-26T08:49:05.836Z,57.80
2022-08-26T08:50:05.783Z,59.40
2022-08-26T08:51:05.762Z,55.60
2022-08-26T08:52:05.777Z,54.00
2022-08-26T08:53:08.932Z,59.10
2022-08-26T08:54:05.735Z,57.30
2022-08-26T08:55:05.732Z,57.50
2022-08-26T08:56:05.706Z,56.40
2022-08-26T08:57:05.711Z,55.70
2022-08-26T08:58:05.840Z,57.20
2022-08-26T08:59:05.677Z,55.40
2022-08-26T09:00:05.661Z,54.10
2022-08-26T09:01:06.007Z,53.40
2022-08-26T09:02:05.683Z,58.70
2022-08-26T09:03:05.665Z,58.00
2022-08-26T09:04:05.645Z,58.60
2022-08-26T09:05:05.605Z,53.00
2022-08-26T09:06:05.590Z,59.20
2022-08-26T09:07:05.615Z,56.90
2022-08-26T09:08:06.582Z,58.70
2022-08-26T09:09:05.577Z,56.70
2022-08-26T09:10:05.552Z,56.70
2022-08-26T09:11:05.564Z,58.30
2022-08-26T09:12:05.534Z,54.10
2022-08-26T09:13:05.531Z,56.40
2022-08-26T09:14:05.563Z,55.00
2022-08-26T09:15:05.499Z,60.90
2022-08-26T09:16:05.478Z,58.60
2022-08-26T09:17:05.504Z,57.60
2022-08-26T09:18:05.852Z,56.80
2022-08-26T09:19:05.513Z,56.70
2022-08-26T09:20:05.440Z,56.00
2022-08-26T09:21:05.448Z,61.10
2022-08-26T09:22:09.338Z,56.20
2022-08-26T09:23:05.491Z,55.50
2022-08-26T09:24:05.425Z,58.70
2022-08-26T09:25:05.437Z,60.10
2022-08-26T09:26:05.388Z,54.40
2022-08-26T09:27:05.679Z,53.60
2022-08-26T09:28:05.421Z,58.00
2022-08-26T09:29:05.377Z,54.80
2022-08-26T09:30:05.372Z,55.80
2022-08-26T09:31:09.273Z,50.50
2022-08-26T09:32:05.325Z,53.90
2022-08-26T09:33:10.057Z,54.60
2022-08-26T09:34:05.297Z,57.60
2022-08-26T09:35:06.271Z,56.40
2022-08-26T09:36:05.307Z,51.60
2022-08-26T09:37:05.294Z,53.50
2022-08-26T09:38:06.157Z,50.40
2022-08-26T09:39:05.257Z,54.00
2022-08-26T09:40:05.302Z,53.70
2022-08-26T09:41:05.312Z,52.70
2022-08-26T09:42:05.210Z,53.40
2022-08-26T09:43:05.202Z,52.70
2022-08-26T09:44:05.186Z,49.00
2022-08-26T09:45:05.175Z,56.30
2022-08-26T09:46:05.207Z,52.60
2022-08-26T09:47:05.165Z,54.30
2022-08-26T09:48:05.144Z,53.50
2022-08-26T09:49:05.133Z,53.70
2022-08-26T09:50:05.142Z,49.50
2022-08-26T09:51:05.103Z,50.40
2022-08-26T09:52:05.126Z,50.90
2022-08-26T09:53:05.186Z,56.90
2022-08-26T09:54:05.626Z,49.40
2022-08-26T09:55:05.066Z,51.90
2022-08-26T09:56:05.066Z,54.30
2022-08-26T09:57:05.063Z,53.80
2022-08-26T09:58:07.738Z,52.90
2022-08-26T09:59:05.013Z,51.80
2022-08-26T10:00:05.017Z,50.40
2022-08-26T10:01:05.026Z,49.00
2022-08-26T10:02:05.037Z,46.60
2022-08-26T10:03:05.024Z,48.80
2022-08-26T10:04:04.991Z,49.00
2022-08-26T10:05:09.680Z,46.90
2022-08-26T10:06:04.951Z,49.20
2022-08-26T10:07:04.938Z,43.90
2022-08-26T10:08:04.978Z,49.70
2022-08-26T10:09:08.871Z,52.80
2022-08-26T10:10:04.906Z,43.50
2022-08-26T10:11:04.894Z,47.90
2022-08-26T10:12:04.871Z,48.20
2022-08-26T10:13:04.904Z,48.80
2022-08-26T10:14:04.879Z,48.20
2022-08-26T10:15:04.850Z,51.00
2022-08-26T10:16:05.694Z,49.60
2022-08-26T10:17:05.356Z,46.00
2022-08-26T10:18:04.832Z,46.80
2022-08-26T10:19:04.797Z,49.70
2022-08-26T10:20:04.838Z,47.80
2022-08-26T10:21:04.784Z,45.50
2022-08-26T10:22:04.770Z,49.00
2022-08-26T10:23:04.762Z,46.40
2022-08-26T10:24:04.754Z,46.00
2022-08-26T10:25:04.742Z,46.40
2022-08-26T10:26:04.720Z,52.40
2022-08-26T10:27:04.762Z,48.00
2022-08-26T10:28:04.783Z,46.00
2022-08-26T10:29:04.697Z,44.40
2022-08-26T10:30:04.675Z,52.70
2022-08-26T10:31:04.703Z,46.20
2022-08-26T10:32:04.738Z,47.30
2022-08-26T10:33:04.688Z,44.30
2022-08-26T10:34:04.690Z,45.30
2022-08-26T10:35:04.634Z,45.50
2022-08-26T10:36:04.652Z,43.60
2022-08-26T10:37:14.304Z,46.10
2022-08-26T10:38:04.593Z,43.90
2022-08-26T10:39:04.619Z,43.30
2022-08-26T10:40:04.618Z,46.80
2022-08-26T10:41:10.395Z,45.90
2022-08-26T10:42:04.570Z,46.40
2022-08-26T10:43:09.963Z,46.20
2022-08-26T10:44:04.530Z,45.50
2022-08-26T10:45:04.566Z,48.00
2022-08-26T10:46:04.648Z,48.70
2022-08-26T10:47:04.523Z,47.90
2022-08-26T10:48:04.478Z,45.40
2022-08-26T10:49:04.465Z,46.80
2022-08-26T10:50:04.459Z,43.80
2022-08-26T10:51:04.447Z,45.10
2022-08-26T10:52:04.454Z,47.00
2022-08-26T10:53:04.455Z,45.30
2022-08-26T10:54:04.406Z,45.40
2022-08-26T10:55:04.475Z,44.90
2022-08-26T10:56:04.432Z,48.80
2022-08-26T10:57:04.399Z,43.40
2022-08-26T10:58:04.709Z,42.50
2022-08-26T10:59:04.360Z,46.70
2022-08-26T11:00:04.358Z,40.60
2022-08-26T11:01:10.408Z,39.10
2022-08-26T11:02:04.331Z,41.10
2022-08-26T11:03:04.339Z,43.00
2022-08-26T11:04:04.385Z,40.20
2022-08-26T11:05:04.287Z,39.00
2022-08-26T11:06:04.270Z,42.30
2022-08-26T11:07:04.303Z,41.90
2022-08-26T11:08:04.261Z,39.40
2022-08-26T11:09:04.301Z,36.00
2022-08-26T11:10:04.267Z,40.70
2022-08-26T11:11:04.219Z,44.50
2022-08-26T11:12:10.007Z,38.60
2022-08-26T11:13:04.221Z,39.20
2022-08-26T11:14:04.197Z,41.40
2022-08-26T11:15:05.195Z,37.10
2022-08-26T11:16:04.202Z,40.30
2022-08-26T11:17:04.195Z,38.50
2022-08-26T11:18:04.149Z,37.20
2022-08-26T11:19:04.148Z,34.40
2022-08-26T11:20:09.067Z,37.30
2022-08-26T11:21:04.157Z,38.90
2022-08-26T11:22:04.168Z,35.70
2022-08-26T11:23:04.115Z,38.60
2022-08-26T11:24:04.158Z,35.60
2022-08-26T11:25:04.092Z,34.70
2022-08-26T11:26:04.093Z,33.60
2022-08-26T11:27:04.051Z,35.00
2022-08-26T11:28:04.238Z,33.70
2022-08-26T11:29:04.057Z,34.30
2022-08-26T11:30:04.020Z,34.90
2022-08-26T11:31:04.522Z,34.70
2022-08-26T11:32:04.039Z,31.60
2022-08-26T11:33:03.983Z,30.60
2022-08-26T11:34:03.973Z,31.50
2022-08-26T11:35:03.965Z,31.30
2022-08-26T11:36:11.522Z,29.90
2022-08-26T11:37:04.078Z,31.00
2022-08-26T11:38:04.290Z,28.10
2022-08-26T11:39:03.929Z,32.30
2022-08-26T11:40:04.092Z,30.60
2022-08-26T11:41:03.906Z,28.70
2022-08-26T11:42:03.915Z,29.10
2022-08-26T11:43:03.869Z,29.10
2022-08-26T11:44:03.889Z,29.20
2022-08-26T11:45:05.645Z,25.80
2022-08-26T11:46:03.947Z,27.00
2022-08-26T11:47:03.829Z,29.10
2022-08-26T11:48:03.854Z,28.90
2022-08-26T11:49:03.818Z,27.80
2022-08-26T11:50:03.808Z,24.70
2022-08-26T11:51:03.808Z,26.10
2022-08-26T11:52:03.780Z,27.30
2022-08-26T11:53:03.798Z,30.10
2022-08-26T11:54:03.760Z,28.40
2022-08-26T11:55:03.751Z,24.40
2022-08-26T11:56:03.731Z,23.30
2022-08-26T11:57:09.362Z,26.60
2022-08-26T11:58:04.850Z,30.50
2022-08-26T11:59:03.724Z,31.50
2022-08-26T12:00:03.686Z,27.90
2022-08-26T12:01:03.768Z,26.40
2022-08-26T12:02:03.675Z,27.20
2022-08-26T12:03:03.746Z,25.90
2022-08-26T12:04:03.781Z,27.40
2022-08-26T12:05:03.674Z,25.20
2022-08-26T12:06:03.633Z,24.70
2022-08-26T12:07:03.615Z,23.90
2022-08-26T12:08:03.684Z,24.20
2022-08-26T12:09:03.590Z,23.80
2022-08-26T12:10:03.621Z,25.70
2022-08-26T12:11:03.579Z,26.90
2022-08-26T12:12:03.564Z,23.10
2022-08-26T12:13:03.563Z,26.00
2022-08-26T12:14:03.550Z,25.00
2022-08-26T12:15:03.560Z,23.20
2022-08-26T12:16:03.589Z,23.90
2022-08-26T12:17:03.510Z,21.60
2022-08-26T12:18:03.521Z,25.40
2022-08-26T12:19:03.501Z,26.00
2022-08-26T12:20:03.512Z,23.70
2022-08-26T12:21:03.498Z,27.60
2022-08-26T12:22:03.484Z,24.80
2022-08-26T12:23:03.478Z,24.00
2022-08-26T12:24:03.440Z,24.40
2022-08-26T12:25:03.425Z,23.40
2022-08-26T12:26:03.436Z,26.60
2022-08-26T12:27:03.411Z,22.80
2022-08-26T12:28:03.399Z,24.80
2022-08-26T12:29:10.026Z,22.80
2022-08-26T12:30:03.399Z,25.20
2022-08-26T12:31:03.362Z,23.80
2022-08-26T12:32:03.455Z,23.00
2022-08-26T12:33:03.347Z,20.70
2022-08-26T12:34:03.345Z,23.70
2022-08-26T12:36:03.324Z,21.90
2022-08-26T12:37:03.327Z,20.30
2022-08-26T12:38:03.324Z,23.30
2022-08-26T12:39:03.285Z,20.00
2022-08-26T12:40:03.399Z,19.70
2022-08-26T12:41:03.276Z,19.10
2022-08-26T12:42:03.263Z,20.10
2022-08-26T12:43:03.255Z,20.20
2022-08-26T12:44:03.241Z,19.30
2022-08-26T12:45:03.227Z,18.70
2022-08-26T12:46:03.257Z,18.40
2022-08-26T12:47:03.226Z,22.10
2022-08-26T12:48:03.272Z,16.90
2022-08-26T12:49:03.181Z,18.40
2022-08-26T12:50:03.194Z,19.10
2022-08-26T12:51:03.161Z,18.30
2022-08-26T12:52:03.130Z,20.10